createdAt,value
2023-02-09T00:03:59.133Z,13.25
2023-02-09T00:06:27.139Z,12.85
2023-02-09T00:08:54.834Z,12.40
2023-02-09T00:11:46.937Z,12.40
2023-02-09T00:14:16.390Z,12.45
2023-02-09T00:16:43.781Z,12.38
2023-02-09T00:19:12.061Z,12.88
2023-02-09T00:21:40.153Z,12.75
2023-02-09T00:24:07.858Z,12.65
2023-02-09T00:26:35.208Z,13.75
2023-02-09T00:29:02.797Z,13.25
2023-02-09T00:31:30.481Z,13.50
2023-02-09T00:33:57.939Z,12.63
2023-02-09T00:36:25.260Z,12.90
2023-02-09T00:38:52.609Z,12.48
2023-02-09T00:41:40.087Z,13.18
2023-02-09T00:44:07.332Z,12.27
2023-02-09T00:46:34.762Z,13.25
2023-02-09T00:49:02.039Z,13.02
2023-02-09T00:51:29.331Z,12.57
2023-02-09T00:53:56.983Z,13.27
2023-02-09T00:56:24.365Z,12.38
2023-02-09T00:58:51.666Z,12.82
2023-02-09T01:01:19.079Z,13.52
2023-02-09T01:03:46.418Z,13.07
2023-02-09T01:06:13.863Z,13.77
2023-02-09T01:08:41.222Z,13.23
2023-02-09T01:11:10.426Z,13.13
2023-02-09T01:13:37.855Z,13.18
2023-02-09T01:16:10.015Z,12.90
2023-02-09T01:18:37.354Z,12.95
2023-02-09T01:21:14.102Z,13.55
2023-02-09T01:23:41.435Z,12.32
2023-02-09T01:26:10.726Z,12.52
2023-02-09T01:28:38.430Z,12.65
2023-02-09T01:31:16.191Z,12.80
2023-02-09T01:33:43.534Z,12.00
2023-02-09T01:36:10.794Z,12.30
2023-02-09T01:38:38.128Z,12.32
2023-02-09T01:41:05.450Z,12.32
2023-02-09T01:43:58.020Z,13.35
2023-02-09T01:46:30.779Z,13.20
2023-02-09T01:51:44.909Z,11.90
2023-02-09T01:54:19.566Z,12.40
2023-02-09T01:56:50.248Z,12.18
2023-02-09T01:59:20.100Z,12.80
2023-02-09T02:01:47.514Z,12.88
2023-02-09T02:04:14.898Z,12.38
2023-02-09T02:06:42.259Z,12.52
2023-02-09T02:09:15.950Z,12.98
2023-02-09T02:11:47.441Z,12.20
2023-02-09T02:14:33.008Z,12.55
2023-02-09T02:17:12.358Z,13.70
2023-02-09T02:20:17.195Z,12.55
2023-02-09T02:23:21.475Z,13.27
2023-02-09T02:26:10.575Z,12.52
2023-02-09T02:29:04.759Z,13.27
2023-02-09T02:31:40.452Z,12.90
2023-02-09T02:34:27.679Z,13.02
2023-02-09T02:36:55.508Z,13.05
2023-02-09T02:39:33.358Z,12.75
2023-02-09T02:42:29.772Z,12.80
2023-02-09T02:45:03.973Z,13.63
2023-02-09T02:47:32.350Z,12.38
2023-02-09T02:50:04.289Z,13.00
2023-02-09T02:52:31.701Z,13.33
2023-02-09T02:55:09.036Z,12.48
2023-02-09T02:57:39.243Z,12.80
2023-02-09T03:00:37.963Z,12.15
2023-02-09T03:03:10.169Z,12.68
2023-02-09T03:05:37.989Z,12.13
2023-02-09T03:08:05.496Z,13.40
2023-02-09T03:10:41.380Z,12.90
2023-02-09T03:13:14.819Z,12.27
2023-02-09T03:15:53.244Z,12.90
2023-02-09T03:18:36.646Z,11.30
2023-02-09T03:21:12.556Z,12.68
2023-02-09T03:24:05.855Z,13.18
2023-02-09T03:29:02.417Z,12.52
2023-02-09T03:31:29.952Z,11.75
2023-02-09T03:33:58.319Z,11.82
2023-02-09T03:36:30.909Z,11.85
2023-02-09T03:38:58.253Z,12.43
2023-02-09T03:41:25.646Z,11.27
2023-02-09T03:44:31.492Z,11.70
2023-02-09T03:47:01.897Z,11.77
2023-02-09T03:49:31.748Z,12.10
2023-02-09T03:52:00.752Z,12.23
2023-02-09T03:54:31.953Z,11.82
2023-02-09T03:57:00.099Z,10.95
2023-02-09T03:59:28.338Z,11.20
2023-02-09T04:01:58.410Z,12.05
2023-02-09T04:04:26.454Z,11.00
2023-02-09T04:06:54.047Z,11.55
2023-02-09T04:09:21.582Z,10.38
2023-02-09T04:11:49.360Z,10.25
2023-02-09T04:14:17.022Z,11.02
2023-02-09T04:16:44.432Z,11.30
2023-02-09T04:19:12.379Z,10.60
2023-02-09T04:21:40.312Z,9.77
2023-02-09T04:24:08.287Z,10.50
2023-02-09T04:26:35.947Z,10.90
2023-02-09T04:29:04.041Z,11.15
2023-02-09T04:31:31.839Z,10.10
2023-02-09T04:33:59.260Z,10.45
2023-02-09T04:36:26.582Z,10.98
2023-02-09T04:38:53.844Z,10.10
2023-02-09T04:41:21.205Z,10.73
2023-02-09T04:43:48.615Z,10.48
2023-02-09T04:46:17.918Z,9.98
2023-02-09T04:48:46.031Z,10.18
2023-02-09T04:51:13.516Z,10.10
2023-02-09T04:53:41.143Z,10.15
2023-02-09T04:56:08.785Z,10.25
2023-02-09T04:58:54.506Z,10.05
2023-02-09T05:01:23.839Z,10.32
2023-02-09T05:03:51.669Z,9.52
2023-02-09T05:06:21.041Z,10.05
2023-02-09T05:08:48.782Z,10.32
2023-02-09T05:11:16.476Z,10.38
2023-02-09T05:13:44.183Z,9.43
2023-02-09T05:16:16.038Z,9.60
2023-02-09T05:18:43.718Z,10.77
2023-02-09T05:21:11.105Z,9.77
2023-02-09T05:23:38.359Z,10.30
2023-02-09T05:26:05.874Z,10.75
2023-02-09T05:28:33.330Z,10.10
2023-02-09T05:31:00.786Z,10.40
2023-02-09T05:33:28.175Z,10.80
2023-02-09T05:35:58.319Z,11.20
2023-02-09T05:38:25.700Z,10.55
2023-02-09T05:40:53.155Z,10.60
2023-02-09T05:43:20.477Z,10.13
2023-02-09T05:45:47.839Z,10.27
2023-02-09T05:48:15.153Z,10.23
2023-02-09T05:50:42.545Z,10.85
2023-02-09T05:53:10.283Z,11.10
2023-02-09T05:55:37.604Z,10.23
2023-02-09T05:58:05.153Z,10.30
2023-02-09T06:00:32.744Z,10.25
2023-02-09T06:03:03.470Z,10.68
2023-02-09T06:05:30.865Z,10.82
2023-02-09T06:07:58.235Z,11.23
2023-02-09T06:10:25.792Z,11.27
2023-02-09T06:12:53.383Z,10.98
2023-02-09T06:15:21.110Z,11.02
2023-02-09T06:17:48.409Z,12.00
2023-02-09T06:20:15.711Z,11.68
2023-02-09T06:22:43.029Z,10.93
2023-02-09T06:25:10.373Z,11.55
2023-02-09T06:27:37.733Z,11.32
2023-02-09T06:30:06.260Z,11.88
2023-02-09T06:32:33.658Z,11.43
2023-02-09T06:35:00.979Z,11.85
2023-02-09T06:37:28.308Z,12.10
2023-02-09T06:39:55.616Z,11.77
2023-02-09T06:42:23.015Z,11.93
2023-02-09T06:44:50.412Z,12.48
2023-02-09T06:47:17.730Z,11.70
2023-02-09T06:49:45.131Z,12.57
2023-02-09T06:52:13.223Z,12.25
2023-02-09T06:54:40.576Z,12.48
2023-02-09T06:57:07.979Z,13.30
2023-02-09T06:59:35.276Z,12.40
2023-02-09T07:02:02.675Z,12.32
2023-02-09T07:04:30.047Z,11.25
2023-02-09T07:06:57.441Z,12.85
2023-02-09T07:09:24.828Z,11.95
2023-02-09T07:11:52.242Z,12.10
2023-02-09T07:14:19.783Z,11.80
2023-02-09T07:16:47.090Z,12.27
2023-02-09T07:19:14.575Z,12.10
2023-02-09T07:21:43.972Z,11.63
2023-02-09T07:24:11.498Z,12.82
2023-02-09T07:26:38.826Z,12.48
2023-02-09T07:29:06.122Z,12.10
2023-02-09T07:31:33.565Z,10.70
2023-02-09T07:34:01.137Z,12.23
2023-02-09T07:36:28.496Z,11.60
2023-02-09T07:38:56.341Z,12.30
2023-02-09T07:41:25.256Z,12.90
2023-02-09T07:43:53.220Z,11.98
2023-02-09T07:46:22.827Z,12.35
2023-02-09T07:48:50.470Z,13.23
2023-02-09T07:51:20.570Z,12.40
2023-02-09T07:53:48.673Z,13.20
2023-02-09T07:56:15.972Z,13.20
2023-02-09T07:58:43.378Z,12.30
2023-02-09T08:01:12.332Z,12.13
2023-02-09T08:03:41.517Z,12.25
2023-02-09T08:06:42.853Z,12.98
2023-02-09T08:09:15.093Z,12.25
2023-02-09T08:12:14.654Z,12.48
2023-02-09T08:14:48.127Z,12.68
2023-02-09T08:17:20.667Z,12.27
2023-02-09T08:20:04.984Z,13.90
2023-02-09T08:22:36.889Z,13.10
2023-02-09T08:25:04.876Z,12.97
2023-02-09T08:27:32.535Z,12.80
2023-02-09T08:30:00.356Z,13.40
2023-02-09T08:32:27.752Z,12.13
2023-02-09T08:34:55.153Z,12.90
2023-02-09T08:37:22.488Z,12.80
2023-02-09T08:39:50.830Z,12.02
2023-02-09T08:42:18.370Z,12.40
2023-02-09T08:44:45.787Z,12.20
2023-02-09T08:47:13.107Z,11.82
2023-02-09T08:49:41.560Z,12.10
2023-02-09T08:52:08.977Z,11.55
2023-02-09T08:54:36.750Z,12.07
2023-02-09T08:57:04.480Z,11.50
2023-02-09T08:59:33.029Z,12.50
2023-02-09T09:02:00.369Z,12.45
2023-02-09T09:04:29.443Z,12.13
2023-02-09T09:06:56.760Z,12.13
2023-02-09T09:09:24.061Z,12.10
2023-02-09T09:11:51.456Z,12.70
2023-02-09T09:14:18.802Z,12.38
2023-02-09T09:16:46.223Z,11.85
2023-02-09T09:19:13.548Z,12.10
2023-02-09T09:21:40.809Z,12.57
2023-02-09T09:24:08.150Z,13.02
2023-02-09T09:26:36.124Z,12.63
2023-02-09T09:29:03.473Z,12.95
2023-02-09T09:31:33.491Z,12.15
2023-02-09T09:34:01.046Z,12.65
2023-02-09T09:36:28.386Z,13.50
2023-02-09T09:38:56.594Z,13.05
2023-02-09T09:41:38.988Z,13.07
2023-02-09T09:44:37.967Z,13.52
2023-02-09T09:47:12.274Z,12.57
2023-02-09T09:49:40.110Z,12.68
2023-02-09T09:52:30.543Z,13.38
2023-02-09T09:54:59.325Z,13.65
2023-02-09T09:57:29.133Z,13.30
2023-02-09T09:59:58.338Z,13.75
2023-02-09T10:02:35.133Z,13.68
2023-02-09T10:05:11.786Z,13.52
2023-02-09T10:07:40.341Z,13.52
2023-02-09T10:10:23.703Z,14.63
2023-02-09T10:12:52.799Z,15.07
2023-02-09T10:15:33.157Z,14.63
2023-02-09T10:18:01.033Z,14.63
2023-02-09T10:20:45.212Z,15.27
2023-02-09T10:23:19.241Z,14.38
2023-02-09T10:25:54.577Z,16.73
2023-02-09T10:28:24.866Z,14.98
2023-02-09T10:30:55.251Z,15.18
2023-02-09T10:33:22.673Z,15.25
2023-02-09T10:35:58.694Z,16.05
2023-02-09T10:38:33.121Z,16.50
2023-02-09T10:41:01.432Z,16.63
2023-02-09T10:43:31.539Z,16.23
2023-02-09T10:46:03.852Z,15.98
2023-02-09T10:48:41.711Z,15.88
2023-02-09T10:51:15.529Z,16.38
2023-02-09T10:54:19.816Z,17.13
2023-02-09T10:56:48.842Z,16.58
2023-02-09T10:59:22.158Z,17.52
2023-02-09T11:02:00.759Z,17.00
2023-02-09T11:04:38.496Z,17.25
2023-02-09T11:07:11.187Z,17.60
2023-02-09T11:09:48.130Z,16.70
2023-02-09T11:12:15.869Z,17.13
2023-02-09T11:14:44.097Z,17.85
2023-02-09T11:17:23.115Z,18.20
2023-02-09T11:20:17.523Z,17.42
2023-02-09T11:23:26.922Z,18.60
2023-02-09T11:26:15.548Z,18.67
2023-02-09T11:29:14.035Z,18.80
2023-02-09T11:32:14.413Z,18.45
2023-02-09T11:35:00.984Z,19.30
2023-02-09T11:37:43.228Z,18.85
2023-02-09T11:40:20.271Z,18.90
2023-02-09T11:43:13.775Z,18.67
2023-02-09T11:45:44.701Z,19.33
2023-02-09T11:48:15.729Z,18.00
2023-02-09T11:50:57.854Z,18.42
2023-02-09T11:53:48.988Z,18.70
2023-02-09T11:56:21.318Z,19.15
2023-02-09T11:59:10.204Z,19.58
2023-02-09T12:02:19.190Z,20.40
2023-02-09T12:04:57.155Z,19.98
2023-02-09T12:07:33.030Z,20.33
2023-02-09T12:10:33.183Z,20.88
2023-02-09T12:13:24.033Z,21.02
2023-02-09T12:15:54.856Z,20.45
2023-02-09T12:18:24.718Z,20.92
2023-02-09T12:20:56.218Z,19.95
2023-02-09T12:23:37.587Z,20.98
2023-02-09T12:26:16.821Z,21.17
2023-02-09T12:28:49.544Z,21.60
2023-02-09T12:31:20.489Z,21.40
2023-02-09T12:33:47.812Z,20.88
2023-02-09T12:36:17.959Z,22.13
2023-02-09T12:39:03.856Z,22.27
2023-02-09T12:41:51.447Z,22.02
2023-02-09T12:44:19.437Z,22.50
2023-02-09T12:46:52.941Z,24.08
2023-02-09T12:49:21.247Z,22.40
2023-02-09T12:51:54.622Z,23.10
2023-02-09T12:54:40.468Z,23.67
2023-02-09T12:57:17.209Z,22.65
2023-02-09T12:59:53.364Z,23.85
2023-02-09T13:02:29.873Z,23.30
2023-02-09T13:05:14.778Z,23.88
2023-02-09T13:07:50.377Z,23.73
2023-02-09T13:10:35.743Z,24.65
2023-02-09T13:13:12.178Z,25.08
2023-02-09T13:16:05.429Z,23.73
2023-02-09T13:21:53.660Z,23.45
2023-02-09T13:24:24.002Z,24.52
2023-02-09T13:26:59.435Z,24.77
2023-02-09T13:29:35.910Z,25.50
2023-02-09T13:32:38.304Z,25.42
2023-02-09T13:35:25.749Z,24.70
2023-02-09T13:37:55.996Z,25.17
2023-02-09T13:40:34.400Z,25.38
2023-02-09T13:43:01.720Z,25.38
2023-02-09T13:45:30.985Z,25.50
2023-02-09T13:48:00.627Z,26.08
2023-02-09T13:50:29.371Z,24.80
2023-02-09T13:53:09.925Z,25.60
2023-02-09T13:55:40.817Z,26.95
2023-02-09T13:58:12.842Z,26.13
2023-02-09T14:00:49.081Z,26.30
2023-02-09T14:03:22.870Z,26.25
2023-02-09T14:05:58.167Z,26.17
2023-02-09T14:08:26.798Z,26.52
2023-02-09T14:11:42.714Z,26.88
2023-02-09T14:14:28.872Z,25.85
2023-02-09T14:17:25.224Z,27.02
2023-02-09T14:19:54.344Z,26.63
2023-02-09T14:22:57.749Z,26.20
2023-02-09T14:25:30.452Z,28.50
2023-02-09T14:27:58.339Z,28.55
2023-02-09T14:30:34.167Z,27.33
2023-02-09T14:33:03.882Z,27.98
2023-02-09T14:35:37.518Z,28.38
2023-02-09T14:38:04.970Z,28.15
2023-02-09T14:40:34.683Z,27.08
2023-02-09T14:43:11.022Z,27.52
2023-02-09T14:45:43.385Z,27.55
2023-02-09T14:48:21.617Z,28.55
2023-02-09T14:50:50.835Z,27.77
2023-02-09T14:53:19.030Z,28.27
2023-02-09T14:55:46.667Z,29.85
2023-02-09T14:58:21.018Z,29.70
2023-02-09T15:00:48.866Z,29.35
2023-02-09T15:03:16.342Z,30.05
2023-02-09T15:05:44.556Z,30.23
2023-02-09T15:08:16.590Z,31.00
2023-02-09T15:10:50.600Z,29.65
2023-02-09T15:13:17.974Z,28.92
2023-02-09T15:15:46.493Z,28.73
2023-02-09T15:18:25.724Z,28.83
2023-02-09T15:20:53.251Z,29.88
2023-02-09T15:23:20.684Z,30.02
2023-02-09T15:25:48.481Z,29.00
2023-02-09T15:28:24.585Z,30.55
2023-02-09T15:30:52.125Z,30.10
2023-02-09T15:33:19.517Z,29.92
2023-02-09T15:35:47.234Z,31.05
2023-02-09T15:38:15.852Z,30.55
2023-02-09T15:41:08.477Z,30.98
2023-02-09T15:43:54.600Z,31.77
2023-02-09T15:46:22.238Z,31.73
2023-02-09T15:48:49.599Z,30.95
2023-02-09T15:51:17.859Z,32.53
2023-02-09T15:53:45.903Z,30.83
2023-02-09T15:56:15.110Z,32.60
2023-02-09T15:58:44.896Z,31.38
2023-02-09T16:01:15.537Z,32.08
2023-02-09T16:03:43.148Z,31.42
2023-02-09T16:06:29.234Z,31.75
2023-02-09T16:09:01.554Z,32.42
2023-02-09T16:11:36.079Z,30.75
2023-02-09T16:14:05.658Z,32.40
2023-02-09T16:16:35.972Z,31.67
2023-02-09T16:19:03.299Z,31.05
2023-02-09T16:21:33.463Z,32.78
2023-02-09T16:24:05.936Z,31.23
2023-02-09T16:26:34.591Z,33.70
2023-02-09T16:29:02.059Z,32.72
2023-02-09T16:31:29.478Z,33.53
2023-02-09T16:33:56.830Z,33.72
2023-02-09T16:36:26.607Z,33.75
2023-02-09T16:38:57.231Z,31.92
2023-02-09T16:41:43.181Z,33.67
2023-02-09T16:44:24.722Z,32.83
2023-02-09T16:46:53.993Z,34.50
2023-02-09T16:49:40.759Z,33.13
2023-02-09T16:52:19.290Z,35.13
2023-02-09T16:54:49.270Z,34.35
2023-02-09T16:57:18.892Z,35.33
2023-02-09T16:59:46.628Z,34.47
2023-02-09T17:02:35.360Z,34.42
2023-02-09T17:05:08.461Z,34.78
2023-02-09T17:07:52.259Z,35.70
2023-02-09T17:10:24.713Z,36.83
2023-02-09T17:12:53.698Z,36.47
2023-02-09T17:15:29.987Z,36.35
2023-02-09T17:18:02.327Z,35.83
2023-02-09T17:20:34.873Z,36.53
2023-02-09T17:23:02.238Z,36.55
2023-02-09T17:25:29.616Z,34.38
2023-02-09T17:27:57.121Z,37.10
2023-02-09T17:30:24.626Z,35.40
2023-02-09T17:33:04.426Z,35.95
2023-02-09T17:36:03.703Z,35.40
2023-02-09T17:38:25.832Z,46.42
2023-02-09T17:40:54.844Z,40.25
2023-02-09T17:43:22.880Z,41.20
2023-02-09T17:45:51.313Z,40.60
2023-02-09T17:48:20.195Z,43.47
2023-02-09T17:50:48.970Z,42.47
2023-02-09T17:53:21.025Z,40.30
2023-02-09T17:55:50.869Z,38.13
2023-02-09T17:58:18.994Z,36.55
2023-02-09T18:00:46.886Z,38.25
2023-02-09T18:03:17.103Z,40.08
2023-02-09T18:05:45.153Z,42.40
2023-02-09T18:08:12.855Z,40.95
2023-02-09T18:10:40.303Z,40.85
2023-02-09T18:13:09.420Z,40.25
2023-02-09T18:15:37.631Z,38.13
2023-02-09T18:18:05.579Z,37.58
2023-02-09T18:20:34.337Z,38.75
2023-02-09T18:23:02.910Z,38.15
2023-02-09T18:25:36.623Z,43.97
2023-02-09T18:28:06.690Z,42.58
2023-02-09T18:30:39.513Z,42.20
2023-02-09T18:33:07.831Z,41.85
2023-02-09T18:35:36.157Z,43.30
2023-02-09T18:38:05.044Z,40.42
2023-02-09T18:40:32.550Z,39.92
2023-02-09T18:43:01.204Z,42.83
2023-02-09T18:45:30.544Z,39.90
2023-02-09T18:47:58.422Z,41.35
2023-02-09T18:50:28.407Z,40.30
2023-02-09T18:52:58.485Z,43.17
2023-02-09T18:55:29.332Z,42.22
2023-02-09T18:57:58.001Z,45.78
2023-02-09T19:00:26.395Z,44.25
2023-02-09T19:02:57.562Z,44.17
2023-02-09T19:05:27.985Z,44.70
2023-02-09T19:07:56.656Z,43.88
2023-02-09T19:10:24.597Z,44.05
2023-02-09T19:12:52.090Z,43.33
2023-02-09T19:15:21.049Z,46.30
2023-02-09T19:17:48.453Z,42.10
2023-02-09T19:20:21.497Z,45.65
2023-02-09T19:22:51.634Z,42.92
2023-02-09T19:25:27.304Z,48.20
2023-02-09T19:27:57.826Z,45.05
2023-02-09T19:30:26.486Z,46.03
2023-02-09T19:32:58.652Z,49.20
2023-02-09T19:35:26.177Z,46.83
2023-02-09T19:37:56.025Z,47.30
2023-02-09T19:40:30.177Z,45.17
2023-02-09T19:42:57.902Z,45.45
2023-02-09T19:45:25.418Z,45.78
2023-02-09T19:47:52.809Z,47.42
2023-02-09T19:50:20.217Z,50.38
2023-02-09T19:52:49.133Z,45.00
2023-02-09T19:55:16.682Z,46.55
2023-02-09T19:57:46.597Z,47.65
2023-02-09T20:00:24.154Z,47.55
2023-02-09T20:02:51.616Z,44.58
2023-02-09T20:05:19.097Z,50.15
2023-02-09T20:07:48.841Z,48.10
2023-02-09T20:10:16.379Z,51.88
2023-02-09T20:15:16.353Z,50.13
2023-02-09T20:17:44.388Z,45.95
2023-02-09T20:20:12.683Z,43.80
2023-02-09T20:22:40.206Z,47.78
2023-02-09T20:25:09.204Z,43.88
2023-02-09T20:27:36.704Z,42.47
2023-02-09T20:30:07.998Z,42.42
2023-02-09T20:32:36.630Z,45.72
2023-02-09T20:35:05.173Z,43.05
2023-02-09T20:37:32.715Z,41.63
2023-02-09T20:40:00.261Z,44.50
2023-02-09T20:42:46.495Z,42.65
2023-02-09T20:45:36.400Z,46.05
2023-02-09T20:48:05.264Z,46.00
2023-02-09T20:50:33.688Z,44.88
2023-02-09T20:53:01.647Z,44.05
2023-02-09T20:55:29.610Z,43.22
2023-02-09T20:57:57.272Z,41.72
2023-02-09T21:00:25.086Z,41.88
2023-02-09T21:02:52.425Z,40.90
2023-02-09T21:05:19.834Z,41.80
2023-02-09T21:07:48.328Z,41.60
2023-02-09T21:10:16.033Z,40.30
2023-02-09T21:12:43.423Z,38.72
2023-02-09T21:15:10.819Z,39.28
2023-02-09T21:17:45.137Z,38.72
2023-02-09T21:20:12.635Z,38.25
2023-02-09T21:22:40.003Z,36.80
2023-02-09T21:25:07.759Z,37.35
2023-02-09T21:27:35.162Z,37.80
2023-02-09T21:30:02.786Z,37.42
2023-02-09T21:32:30.130Z,39.28
2023-02-09T21:34:57.511Z,38.92
2023-02-09T21:37:24.933Z,40.35
2023-02-09T21:39:52.499Z,40.47
2023-02-09T21:42:31.425Z,39.65
2023-02-09T21:44:59.639Z,40.58
2023-02-09T21:47:31.761Z,39.65
2023-02-09T21:49:59.314Z,40.58
2023-02-09T21:52:27.253Z,42.53
2023-02-09T21:54:54.660Z,42.40
2023-02-09T21:57:22.704Z,41.72
2023-02-09T21:59:50.065Z,38.55
2023-02-09T22:02:18.605Z,39.60
2023-02-09T22:04:46.841Z,38.53
2023-02-09T22:07:15.007Z,41.20
2023-02-09T22:09:42.624Z,38.25
2023-02-09T22:12:09.945Z,38.33
2023-02-09T22:14:37.446Z,40.97
2023-02-09T22:17:04.867Z,39.30
2023-02-09T22:19:32.300Z,38.88
2023-02-09T22:22:01.077Z,39.17
2023-02-09T22:24:30.028Z,38.47
2023-02-09T22:26:57.689Z,35.05
2023-02-09T22:29:25.449Z,37.80
2023-02-09T22:31:52.871Z,36.40
2023-02-09T22:34:20.323Z,39.15
2023-02-09T22:36:51.043Z,37.13
2023-02-09T22:39:18.489Z,39.88
2023-02-09T22:41:47.452Z,37.55
2023-02-09T22:44:16.613Z,36.08
2023-02-09T22:46:45.236Z,33.58
2023-02-09T22:49:18.179Z,32.47
2023-02-09T22:54:14.733Z,29.45
2023-02-09T22:56:42.439Z,32.70
2023-02-09T22:59:12.262Z,34.30
2023-02-09T23:01:39.622Z,34.13
2023-02-09T23:04:07.234Z,35.25
2023-02-09T23:06:34.945Z,34.35
2023-02-09T23:09:04.981Z,34.92
2023-02-09T23:11:32.661Z,35.25
2023-02-09T23:14:09.091Z,35.80
2023-02-09T23:16:38.806Z,35.22
2023-02-09T23:19:08.632Z,37.17
2023-02-09T23:21:38.926Z,34.80
2023-02-09T23:24:06.714Z,37.53
2023-02-09T23:26:34.376Z,37.70
2023-02-09T23:29:04.372Z,37.47
2023-02-09T23:31:32.192Z,36.22
2023-02-09T23:33:59.664Z,33.17
2023-02-09T23:36:33.266Z,34.63
2023-02-09T23:39:02.672Z,35.38
2023-02-09T23:41:30.472Z,34.38
2023-02-09T23:43:58.305Z,32.60
2023-02-09T23:46:28.617Z,32.15
2023-02-09T23:48:56.524Z,32.17
2023-02-09T23:51:36.692Z,32.42
2023-02-09T23:54:06.004Z,33.05
2023-02-09T23:56:37.223Z,31.77
2023-02-09T23:59:07.294Z,31.73
